Time;durP1;ratioP1;P1;durP2;ratioP2;P2;SDS_P1;SDS_P2;PMS_P1;PMS_P2;Temp;Humidity;BMP_temperature;BMP_pressure;BME280_temperature;BME280_humidity;BME280_pressure;Samples;Min_cycle;Max_cycle;Signal;HPM_P1;HPM_P2
2020/12/22 00:02:06;;;;;;;3.78;2.58;;;15.10;67.10;;;;;;5049222;28;20032;-77
2020/12/22 00:04:41;;;;;;;2.45;1.98;;;15.20;67.10;;;;;;5047687;28;20028;-76
2020/12/22 00:07:11;;;;;;;2.65;2.08;;;15.20;67.10;;;;;;5030665;28;20517;-77
2020/12/22 00:09:43;;;;;;;2.35;2.10;;;15.20;67.10;;;;;;5047170;28;20108;-79
2020/12/22 00:12:21;;;;;;;1.92;1.70;;;15.20;67.10;;;;;;5046608;28;20473;-78
2020/12/22 00:15:00;;;;;;;2.40;2.00;;;15.20;67.10;;;;;;5050104;28;20041;-77
2020/12/22 00:17:31;;;;;;;2.25;1.75;;;15.20;67.10;;;;;;5045223;28;20079;-78
2020/12/22 00:20:15;;;;;;;3.08;2.45;;;15.20;67.00;;;;;;5031237;28;20068;-77
2020/12/22 00:22:45;;;;;;;2.85;2.30;;;15.20;67.00;;;;;;5045921;28;20032;-77
2020/12/22 00:25:16;;;;;;;2.70;2.10;;;15.20;67.00;;;;;;5047861;28;20029;-78
2020/12/22 00:27:47;;;;;;;2.42;1.95;;;15.20;67.10;;;;;;5048931;28;20029;-78
2020/12/22 00:30:18;;;;;;;2.60;2.03;;;15.20;67.00;;;;;;5028045;28;20450;-77
2020/12/22 00:32:49;;;;;;;3.35;2.42;;;15.20;67.00;;;;;;5028208;28;20371;-78
2020/12/22 00:35:19;;;;;;;2.85;2.20;;;15.20;67.00;;;;;;5029942;28;20039;-78
2020/12/22 00:37:46;;;;;;;3.17;2.33;;;15.20;67.00;;;;;;5045412;28;20130;-77
2020/12/22 00:40:16;;;;;;;3.28;2.33;;;15.20;67.00;;;;;;5047888;28;20040;-77
2020/12/22 00:42:47;;;;;;;2.88;2.28;;;15.20;67.00;;;;;;5031607;28;20032;-78
2020/12/22 00:45:14;;;;;;;3.13;2.15;;;15.20;67.00;;;;;;5047591;28;20036;-78
2020/12/22 00:47:40;;;;;;;3.58;2.20;;;15.20;67.00;;;;;;5044796;28;20056;-77
2020/12/22 00:50:10;;;;;;;3.30;2.60;;;15.20;67.00;;;;;;5047986;28;20063;-78
2020/12/22 00:52:42;;;;;;;3.45;2.15;;;15.20;67.00;;;;;;5050192;28;20033;-78
2020/12/22 00:55:16;;;;;;;2.75;2.10;;;15.20;67.00;;;;;;5048008;28;20032;-77
2020/12/22 00:57:46;;;;;;;2.75;2.17;;;15.20;67.00;;;;;;5048556;28;20095;-77
2020/12/22 01:00:13;;;;;;;3.17;2.38;;;15.20;67.00;;;;;;5049989;28;20055;-77
2020/12/22 01:03:04;;;;;;;2.67;2.28;;;15.20;67.00;;;;;;5033721;28;20143;-77
2020/12/22 01:05:34;;;;;;;2.35;1.92;;;15.20;67.00;;;;;;5043551;28;20056;-79
2020/12/22 01:08:05;;;;;;;2.83;1.95;;;15.20;67.00;;;;;;5049119;28;20029;-77
2020/12/22 01:10:36;;;;;;;3.10;2.15;;;15.20;67.00;;;;;;5029490;28;20035;-78
2020/12/22 01:13:19;;;;;;;2.95;2.22;;;15.20;67.00;;;;;;5032160;28;20371;-78
2020/12/22 01:15:50;;;;;;;2.60;2.00;;;15.20;67.00;;;;;;5048218;28;20042;-78
2020/12/22 01:18:30;;;;;;;4.05;2.67;;;15.20;67.00;;;;;;5032836;28;20024;-78
2020/12/22 01:20:58;;;;;;;2.40;2.03;;;15.20;67.00;;;;;;5032805;28;20112;-78
2020/12/22 01:23:40;;;;;;;2.17;1.98;;;15.20;67.00;;;;;;5045412;28;20124;-77
2020/12/22 01:26:08;;;;;;;2.47;2.17;;;15.20;67.00;;;;;;5048067;28;20094;-77
2020/12/22 01:28:50;;;;;;;2.38;1.90;;;15.20;67.00;;;;;;5048770;28;20385;-77
2020/12/22 01:31:27;;;;;;;4.18;2.30;;;15.20;67.00;;;;;;5049388;28;20025;-78
2020/12/22 01:33:58;;;;;;;2.33;1.95;;;15.20;67.00;;;;;;5047631;28;20025;-76
2020/12/22 01:36:26;;;;;;;3.15;2.17;;;15.20;67.00;;;;;;5047022;28;20040;-77
2020/12/22 01:38:52;;;;;;;2.72;2.22;;;15.20;67.00;;;;;;5046155;28;20107;-77
2020/12/22 01:41:24;;;;;;;2.58;2.15;;;15.20;67.00;;;;;;5047315;28;20441;-80
2020/12/22 01:44:19;;;;;;;4.65;2.30;;;15.20;67.00;;;;;;5027587;28;20044;-79
2020/12/22 01:46:50;;;;;;;2.80;2.20;;;15.20;67.00;;;;;;5046547;28;20033;-78
2020/12/22 01:49:25;;;;;;;2.33;2.03;;;15.20;67.00;;;;;;5031215;28;20043;-77
2020/12/22 01:51:58;;;;;;;2.72;2.30;;;15.20;67.00;;;;;;5044919;28;20068;-77
2020/12/22 01:54:32;;;;;;;2.92;2.38;;;15.20;66.90;;;;;;5048359;28;20047;-78
2020/12/22 01:57:10;;;;;;;2.70;2.28;;;15.20;66.90;;;;;;5031049;28;20434;-77
2020/12/22 01:59:40;;;;;;;2.50;2.08;;;15.20;67.00;;;;;;5046422;28;20029;-77
2020/12/22 02:02:19;;;;;;;2.58;2.10;;;15.20;67.00;;;;;;5033103;28;20037;-77
2020/12/22 02:04:53;;;;;;;3.35;2.22;;;15.20;67.00;;;;;;5029710;28;20078;-77
2020/12/22 02:07:22;;;;;;;2.95;2.10;;;15.20;66.90;;;;;;5044557;28;20033;-77
2020/12/22 02:09:49;;;;;;;2.75;2.25;;;15.20;66.90;;;;;;5029951;28;20074;-77
2020/12/22 02:12:30;;;;;;;2.20;1.98;;;15.20;66.90;;;;;;5043296;28;20036;-78
2020/12/22 02:14:58;;;;;;;3.28;2.40;;;15.20;66.90;;;;;;5045605;28;20180;-77
2020/12/22 02:17:24;;;;;;;;;;;15.30;66.90;;;;;;5049718;28;20465;-77
2020/12/22 02:19:50;;;;;;;2.72;2.22;;;15.30;66.90;;;;;;5045461;28;19908;-77
2020/12/22 02:22:25;;;;;;;2.83;2.05;;;15.20;66.90;;;;;;5049939;28;20032;-78
2020/12/22 02:25:03;;;;;;;2.97;2.55;;;15.20;66.90;;;;;;5046101;28;20039;-78
2020/12/22 02:27:34;;;;;;;2.65;2.20;;;15.20;66.90;;;;;;5049503;28;20025;-77
2020/12/22 02:30:17;;;;;;;3.22;2.10;;;15.20;66.90;;;;;;5068112;28;20433;-77
2020/12/22 02:32:47;;;;;;;2.72;2.05;;;15.20;66.90;;;;;;5064708;28;20032;-77
2020/12/22 02:35:26;;;;;;;2.17;1.70;;;15.20;66.90;;;;;;5067438;28;20039;-77
2020/12/22 02:37:52;;;;;;;2.55;1.95;;;15.20;66.90;;;;;;5064931;28;20476;-78
2020/12/22 02:40:22;;;;;;;3.38;2.15;;;15.20;66.90;;;;;;5049553;28;20052;-77
2020/12/22 02:42:48;;;;;;;3.65;3.15;;;15.20;66.90;;;;;;5065058;28;20028;-77
2020/12/22 02:45:14;;;;;;;3.28;2.25;;;15.20;66.90;;;;;;5067605;28;20044;-77
2020/12/22 02:47:43;;;;;;;3.08;2.25;;;15.20;66.90;;;;;;5050171;28;20029;-77
2020/12/22 02:50:09;;;;;;;3.13;2.00;;;15.20;66.90;;;;;;5046253;28;20424;-77
2020/12/22 02:52:48;;;;;;;3.30;2.42;;;15.20;66.90;;;;;;5065523;28;20094;-78
2020/12/22 02:55:19;;;;;;;2.22;1.80;;;15.30;66.90;;;;;;5065550;28;20024;-77
2020/12/22 02:57:45;;;;;;;4.53;2.30;;;15.30;66.90;;;;;;5045567;28;20381;-78
2020/12/22 03:00:12;;;;;;;3.03;2.35;;;15.20;66.90;;;;;;5068511;28;20028;-77
2020/12/22 03:02:45;;;;;;;2.88;2.38;;;15.20;66.90;;;;;;5053256;28;20039;-77
2020/12/22 03:05:16;;;;;;;2.50;1.95;;;15.20;66.90;;;;;;5050948;28;20037;-77
2020/12/22 03:07:56;;;;;;;3.10;2.30;;;15.20;66.90;;;;;;5052069;28;20032;-77
2020/12/22 03:10:21;;;;;;;2.63;2.15;;;15.30;66.90;;;;;;5070471;28;20056;-78
2020/12/22 03:12:56;;;;;;;2.92;2.20;;;15.20;66.90;;;;;;5068476;28;20454;-77
2020/12/22 03:15:24;;;;;;;2.60;2.03;;;15.30;66.80;;;;;;5052820;28;20068;-78
2020/12/22 03:17:52;;;;;;;3.93;2.40;;;15.20;66.80;;;;;;5069202;28;20042;-78
2020/12/22 03:20:18;;;;;;;2.78;2.22;;;15.30;66.80;;;;;;5050084;28;20035;-77
2020/12/22 03:22:44;;;;;;;3.15;2.28;;;15.30;66.80;;;;;;5068142;28;21721;-78
2020/12/22 03:25:15;;;;;;;3.13;2.50;;;15.20;66.80;;;;;;5069417;28;20031;-77
2020/12/22 03:27:50;;;;;;;2.63;2.17;;;15.20;66.80;;;;;;5052397;28;20029;-77
2020/12/22 03:30:30;;;;;;;2.13;1.90;;;15.30;66.80;;;;;;5071516;28;20056;-77
2020/12/22 03:32:58;;;;;;;3.45;2.33;;;15.30;66.90;;;;;;5052198;28;20480;-77
2020/12/22 03:35:37;;;;;;;3.10;2.30;;;15.20;66.80;;;;;;5069466;28;20028;-77
2020/12/22 03:38:02;;;;;;;;;;;15.20;66.80;;;;;;5068445;28;20040;-77
2020/12/22 03:40:28;;;;;;;4.10;2.60;;;15.30;66.80;;;;;;5051732;28;19908;-77
2020/12/22 03:43:06;;;;;;;3.55;2.30;;;15.30;66.80;;;;;;5069283;28;20036;-77
2020/12/22 03:45:46;;;;;;;;;;;15.30;66.80;;;;;;5051574;28;20025;-78
2020/12/22 03:48:12;;;;;;;2.75;2.05;;;15.20;66.90;;;;;;5069861;28;19912;-78
2020/12/22 03:50:46;;;;;;;2.70;2.17;;;15.30;66.90;;;;;;5051443;28;20050;-77
2020/12/22 03:53:19;;;;;;;4.28;2.10;;;15.20;66.90;;;;;;5049438;28;20032;-78
2020/12/22 03:55:50;;;;;;;2.97;2.05;;;15.20;66.90;;;;;;5049996;28;20036;-77
2020/12/22 03:58:21;;;;;;;2.95;2.17;;;15.30;66.90;;;;;;5052367;28;20465;-79
2020/12/22 04:00:47;;;;;;;2.83;2.20;;;15.30;66.80;;;;;;5070162;28;20029;-77
2020/12/22 04:03:28;;;;;;;3.05;2.25;;;15.20;66.90;;;;;;5054026;28;20040;-77
2020/12/22 04:06:00;;;;;;;2.78;1.75;;;15.20;66.90;;;;;;5069835;28;20025;-78
2020/12/22 04:08:37;;;;;;;2.65;2.10;;;15.30;66.90;;;;;;5068271;28;20033;-77
2020/12/22 04:11:07;;;;;;;2.33;1.88;;;15.20;66.90;;;;;;5065516;28;20116;-77
2020/12/22 04:13:50;;;;;;;2.58;2.08;;;15.20;66.90;;;;;;5068000;28;20065;-77
2020/12/22 04:16:23;;;;;;;2.60;2.17;;;15.20;66.90;;;;;;5068323;28;20495;-77
2020/12/22 04:18:49;;;;;;;3.30;2.45;;;15.20;66.90;;;;;;5067999;28;20089;-77
2020/12/22 04:21:14;;;;;;;3.38;2.13;;;15.30;66.80;;;;;;5066448;28;20029;-77
2020/12/22 04:23:45;;;;;;;2.83;2.05;;;15.20;66.80;;;;;;5067183;28;20052;-77
2020/12/22 04:26:16;;;;;;;2.67;1.98;;;15.30;66.80;;;;;;5067000;28;20027;-78
2020/12/22 04:29:02;;;;;;;2.70;2.15;;;15.30;66.80;;;;;;5069356;28;20099;-78
2020/12/22 04:31:37;;;;;;;3.38;2.50;;;15.20;66.80;;;;;;5051917;28;20028;-77
2020/12/22 04:34:03;;;;;;;2.53;1.90;;;15.30;66.80;;;;;;5051193;28;20111;-77
2020/12/22 04:36:34;;;;;;;2.47;1.90;;;15.20;66.80;;;;;;5052636;28;20032;-77
2020/12/22 04:38:59;;;;;;;2.25;1.98;;;15.20;66.80;;;;;;5065853;28;20036;-77
2020/12/22 04:41:45;;;;;;;2.53;2.00;;;15.20;66.80;;;;;;5067285;28;20385;-78
2020/12/22 04:44:23;;;;;;;2.28;1.90;;;15.30;66.80;;;;;;5049244;28;20043;-77
2020/12/22 04:47:00;;;;;;;2.85;1.95;;;15.30;66.80;;;;;;5068591;28;20528;-77
2020/12/22 04:49:32;;;;;;;2.47;1.77;;;15.30;66.80;;;;;;5051144;28;20419;-77
2020/12/22 04:52:03;;;;;;;2.67;2.40;;;15.30;66.80;;;;;;5066144;28;20025;-77
2020/12/22 04:54:32;;;;;;;2.58;2.22;;;15.30;66.80;;;;;;5049854;28;20033;-77
2020/12/22 04:57:06;;;;;;;2.35;1.90;;;15.30;66.80;;;;;;5068880;28;20032;-76
2020/12/22 04:59:37;;;;;;;2.70;1.77;;;15.30;66.70;;;;;;5064161;28;20025;-78
2020/12/22 05:02:07;;;;;;;2.47;1.80;;;15.30;66.70;;;;;;5066471;28;20036;-79
2020/12/22 05:04:37;;;;;;;2.50;2.00;;;15.30;66.70;;;;;;5048825;28;20049;-78
2020/12/22 05:07:14;;;;;;;2.67;2.22;;;15.30;66.70;;;;;;5066912;28;20027;-77
2020/12/22 05:09:44;;;;;;;3.08;1.95;;;15.30;66.70;;;;;;5066735;28;20031;-78
2020/12/22 05:12:23;;;;;;;2.28;2.00;;;15.30;66.70;;;;;;5066971;28;20055;-79
2020/12/22 05:14:49;;;;;;;2.70;2.15;;;15.30;66.70;;;;;;5049408;28;20053;-78
2020/12/22 05:17:51;;;;;;;;;;;;;;;;;;;;;
2020/12/22 05:20:13;;;;;;;3.00;2.10;;;15.30;66.70;;;;;;5041357;28;20104;-77
2020/12/22 05:22:45;;;;;;;2.65;2.10;;;15.30;66.70;;;;;;5045090;28;20061;-78
2020/12/22 05:25:17;;;;;;;3.08;2.20;;;15.30;66.70;;;;;;5048435;28;20033;-79
2020/12/22 05:27:51;;;;;;;2.38;1.88;;;15.30;66.70;;;;;;5030486;28;20483;-77
2020/12/22 05:30:18;;;;;;;3.03;2.20;;;15.30;66.70;;;;;;5046129;28;20035;-78
2020/12/22 05:32:51;;;;;;;3.03;2.28;;;15.30;66.70;;;;;;5046634;28;20032;-78
2020/12/22 05:35:18;;;;;;;2.53;1.92;;;15.30;66.70;;;;;;5031765;28;20025;-78
2020/12/22 05:37:47;;;;;;;3.80;2.45;;;15.30;66.70;;;;;;5048146;28;20017;-78
2020/12/22 05:40:18;;;;;;;2.47;1.98;;;15.30;66.70;;;;;;5046075;28;20029;-78
2020/12/22 05:42:46;;;;;;;2.80;2.03;;;15.30;66.70;;;;;;5029166;28;20378;-78
2020/12/22 05:45:12;;;;;;;2.63;1.80;;;15.30;66.70;;;;;;5048128;28;20025;-77
2020/12/22 05:47:51;;;;;;;2.95;2.17;;;15.30;66.70;;;;;;5030753;28;20911;-77
2020/12/22 05:50:23;;;;;;;2.47;2.25;;;15.30;66.60;;;;;;5045399;28;20099;-77
2020/12/22 05:52:56;;;;;;;2.55;2.05;;;15.30;66.60;;;;;;5047215;28;20450;-78
2020/12/22 05:55:32;;;;;;;2.17;1.80;;;15.30;66.60;;;;;;5046297;28;20028;-78
2020/12/22 05:58:10;;;;;;;2.60;2.03;;;15.30;66.60;;;;;;5043017;28;20031;-77
2020/12/22 06:00:48;;;;;;;2.80;2.17;;;15.30;66.60;;;;;;5044616;28;20036;-77
2020/12/22 06:03:15;;;;;;;3.85;2.35;;;15.30;66.70;;;;;;5030591;28;20049;-77
2020/12/22 06:05:45;;;;;;;3.53;2.00;;;15.30;66.60;;;;;;5032588;28;20036;-77
2020/12/22 06:08:17;;;;;;;2.53;1.98;;;15.30;66.60;;;;;;5027315;28;20041;-77
2020/12/22 06:10:47;;;;;;;2.45;1.90;;;15.30;66.60;;;;;;5044143;28;20027;-78
2020/12/22 06:13:22;;;;;;;3.05;2.03;;;15.30;66.60;;;;;;5045022;28;20477;-78
2020/12/22 06:15:48;;;;;;;2.10;1.83;;;15.30;66.60;;;;;;5065450;28;20025;-78
2020/12/22 06:18:18;;;;;;;2.38;1.95;;;15.30;66.60;;;;;;5050808;28;20040;-78
2020/12/22 06:20:57;;;;;;;2.42;1.90;;;15.30;66.60;;;;;;5065324;28;20025;-78
2020/12/22 06:23:28;;;;;;;3.13;2.38;;;15.30;66.60;;;;;;5067861;28;20028;-77
2020/12/22 06:26:06;;;;;;;2.60;2.00;;;15.30;66.60;;;;;;5067643;28;20029;-79
2020/12/22 06:28:36;;;;;;;2.47;2.00;;;15.30;66.60;;;;;;5050217;28;20082;-78
2020/12/22 06:31:24;;;;;;;1.95;1.75;;;15.30;66.60;;;;;;5065938;28;20103;-77
2020/12/22 06:33:58;;;;;;;2.47;2.00;;;15.30;66.60;;;;;;5046042;28;20174;-77
2020/12/22 06:36:26;;;;;;;1.80;1.60;;;15.30;66.60;;;;;;5047546;28;20386;-78
2020/12/22 06:39:02;;;;;;;2.47;1.80;;;15.30;66.50;;;;;;5048135;28;20458;-78
2020/12/22 06:41:43;;;;;;;2.35;1.83;;;15.30;66.50;;;;;;5064375;28;20029;-77
2020/12/22 06:44:45;;;;;;;2.78;1.80;;;15.30;66.50;;;;;;5064104;28;20037;-80
2020/12/22 06:47:11;;;;;;;2.55;2.00;;;15.30;66.50;;;;;;5067710;28;20366;-78
2020/12/22 06:49:53;;;;;;;2.40;1.90;;;15.30;66.50;;;;;;5067385;28;20165;-77
2020/12/22 06:52:40;;;;;;;2.63;2.00;;;15.40;66.50;;;;;;5048792;28;20037;-78
2020/12/22 06:55:12;;;;;;;2.78;2.03;;;15.30;66.50;;;;;;5045504;28;20020;-78
2020/12/22 06:57:40;;;;;;;2.25;1.65;;;15.30;66.40;;;;;;5065460;28;20060;-78
2020/12/22 07:00:35;;;;;;;2.85;2.15;;;15.40;66.50;;;;;;5063720;28;20025;-77
2020/12/22 07:03:15;;;;;;;2.20;1.85;;;15.30;66.50;;;;;;5063389;28;20039;-78
2020/12/22 07:05:49;;;;;;;3.13;2.17;;;15.40;66.50;;;;;;5047954;28;20053;-78
2020/12/22 07:08:17;;;;;;;2.50;1.90;;;15.30;66.40;;;;;;5063699;28;20063;-78
2020/12/22 07:10:50;;;;;;;2.50;2.10;;;15.30;66.40;;;;;;5046109;28;20389;-77
2020/12/22 07:13:34;;;;;;;2.47;2.08;;;15.40;66.40;;;;;;5044985;28;20061;-78
2020/12/22 07:16:18;;;;;;;2.38;1.85;;;15.40;66.40;;;;;;5065874;28;20130;-78
2020/12/22 07:18:53;;;;;;;2.50;1.90;;;15.40;66.40;;;;;;5046800;28;20021;-77
2020/12/22 07:21:40;;;;;;;2.67;2.03;;;15.40;66.40;;;;;;5066913;28;20054;-77
2020/12/22 07:24:21;;;;;;;2.60;1.95;;;15.40;66.40;;;;;;5062961;28;20060;-78
2020/12/22 07:27:04;;;;;;;2.30;1.73;;;15.40;66.40;;;;;;5051890;28;20032;-77
2020/12/22 07:29:29;;;;;;;3.10;2.17;;;15.40;66.40;;;;;;5063655;28;20114;-78
2020/12/22 07:31:59;;;;;;;2.70;2.05;;;15.40;66.30;;;;;;5063991;28;20466;-78
2020/12/22 07:34:25;;;;;;;2.80;1.92;;;15.40;66.30;;;;;;5067625;28;20082;-77
2020/12/22 07:37:11;;;;;;;2.25;1.58;;;15.40;66.30;;;;;;5049335;28;20020;-78
2020/12/22 07:39:41;;;;;;;1.70;1.60;;;15.40;66.30;;;;;;5045492;28;20029;-80
2020/12/22 07:42:18;;;;;;;2.55;2.08;;;15.40;66.20;;;;;;5063087;28;20394;-77
2020/12/22 07:44:48;;;;;;;2.33;1.98;;;15.50;66.20;;;;;;5064965;28;20065;-77
2020/12/22 07:47:14;;;;;;;2.30;1.92;;;15.40;66.20;;;;;;5050639;28;20028;-79
2020/12/22 07:49:44;;;;;;;2.17;1.80;;;15.50;66.20;;;;;;5071586;28;20025;-78
2020/12/22 07:52:20;;;;;;;2.53;1.88;;;15.50;66.20;;;;;;5050864;28;20076;-78
2020/12/22 07:54:58;;;;;;;2.30;1.83;;;15.50;66.10;;;;;;5051512;28;20033;-78
2020/12/22 07:57:38;;;;;;;2.08;1.88;;;15.50;66.10;;;;;;5049955;28;20116;-79
2020/12/22 08:00:09;;;;;;;2.17;1.95;;;15.50;66.10;;;;;;5050045;28;20025;-78
2020/12/22 08:02:42;;;;;;;2.53;1.83;;;15.50;66.10;;;;;;5052822;28;20032;-78
2020/12/22 08:05:21;;;;;;;3.15;2.15;;;15.50;66.00;;;;;;5052188;28;20033;-79
2020/12/22 08:08:06;;;;;;;1.92;1.70;;;15.50;66.00;;;;;;5069100;28;20366;-78
2020/12/22 08:10:39;;;;;;;2.63;2.10;;;15.50;66.00;;;;;;5068967;28;20029;-78
2020/12/22 08:13:14;;;;;;;2.95;1.80;;;15.50;66.00;;;;;;5068435;28;20115;-77
2020/12/22 08:15:45;;;;;;;2.67;1.80;;;15.50;65.90;;;;;;5054058;28;20169;-77
2020/12/22 08:18:23;;;;;;;2.25;1.95;;;15.50;65.90;;;;;;5049881;28;20116;-75
2020/12/22 08:20:49;;;;;;;2.45;2.00;;;15.50;65.80;;;;;;5050593;28;20036;-75
2020/12/22 08:23:20;;;;;;;2.05;1.40;;;15.60;65.80;;;;;;5066629;28;20123;-75
2020/12/22 08:25:52;;;;;;;2.30;1.90;;;15.50;65.80;;;;;;5067069;28;21387;-74
2020/12/22 08:28:27;;;;;;;2.25;1.80;;;15.60;65.80;;;;;;5049921;28;20465;-75
2020/12/22 08:31:08;;;;;;;2.50;1.83;;;15.60;65.80;;;;;;5065111;28;20104;-74
2020/12/22 08:33:42;;;;;;;2.20;1.85;;;15.50;65.80;;;;;;5050733;28;20393;-75
2020/12/22 08:36:11;;;;;;;1.77;1.67;;;15.60;65.80;;;;;;5067691;28;20032;-75
2020/12/22 08:38:42;;;;;;;3.20;2.22;;;15.60;65.80;;;;;;5067882;28;20509;-75
2020/12/22 08:41:21;;;;;;;2.25;1.95;;;15.60;65.70;;;;;;5048030;28;20044;-75
2020/12/22 08:44:04;;;;;;;2.47;1.80;;;15.60;65.70;;;;;;5046467;28;20047;-76
2020/12/22 08:46:40;;;;;;;2.55;1.95;;;15.60;65.70;;;;;;5069473;28;20028;-77
2020/12/22 08:49:14;;;;;;;2.40;2.17;;;15.60;65.70;;;;;;5070177;28;20099;-77
2020/12/22 08:51:41;;;;;;;1.92;1.73;;;15.60;65.60;;;;;;5052634;28;20032;-75
2020/12/22 08:54:07;;;;;;;2.13;1.70;;;15.60;65.60;;;;;;5068482;28;20036;-77
2020/12/22 08:56:39;;;;;;;2.42;1.70;;;15.60;65.60;;;;;;5044999;28;20032;-77
2020/12/22 08:59:27;;;;;;;2.28;1.50;;;15.70;65.70;;;;;;5065337;28;20036;-76
2020/12/22 09:01:58;;;;;;;1.88;1.60;;;15.70;65.70;;;;;;5047525;28;20025;-77
2020/12/22 09:04:29;;;;;;;2.92;2.17;;;15.60;65.60;;;;;;5063281;28;20041;-76
2020/12/22 09:07:10;;;;;;;2.30;1.80;;;15.70;65.50;;;;;;5068033;28;20016;-76
2020/12/22 09:09:36;;;;;;;3.05;2.30;;;15.70;65.50;;;;;;5064809;28;20021;-76
2020/12/22 09:12:07;;;;;;;2.10;1.75;;;15.70;65.40;;;;;;5068140;28;20032;-76
2020/12/22 09:14:43;;;;;;;2.65;1.83;;;15.70;65.40;;;;;;5072121;28;20077;-76
2020/12/22 09:17:35;;;;;;;2.17;1.83;;;15.70;65.40;;;;;;5054397;28;20458;-77
2020/12/22 09:20:06;;;;;;;1.95;1.73;;;15.70;65.30;;;;;;5045029;28;20035;-76
2020/12/22 09:22:39;;;;;;;2.58;2.05;;;15.80;65.30;;;;;;5067513;28;20056;-76
2020/12/22 09:25:08;;;;;;;2.00;1.80;;;15.80;65.30;;;;;;5073900;28;20107;-75
2020/12/22 09:27:38;;;;;;;2.85;2.13;;;15.80;65.30;;;;;;5045767;28;20032;-76
2020/12/22 09:30:09;;;;;;;1.98;1.60;;;15.80;65.30;;;;;;5054402;28;20025;-76
2020/12/22 09:32:43;;;;;;;2.00;1.80;;;15.70;65.30;;;;;;5050813;28;20028;-76
2020/12/22 09:35:09;;;;;;;2.20;1.60;;;15.80;65.20;;;;;;5052312;28;20488;-76
2020/12/22 09:37:42;;;;;;;2.03;1.83;;;15.70;65.20;;;;;;5067743;28;20033;-76
2020/12/22 09:40:22;;;;;;;1.67;1.45;;;15.70;65.30;;;;;;5048537;28;20093;-76
2020/12/22 09:42:53;;;;;;;3.13;2.00;;;15.70;65.20;;;;;;5048176;28;20056;-76
2020/12/22 09:45:22;;;;;;;2.20;1.75;;;15.70;65.30;;;;;;5065546;28;20035;-76
2020/12/22 09:47:52;;;;;;;2.28;1.55;;;15.70;65.30;;;;;;5063499;28;20108;-76
2020/12/22 09:50:18;;;;;;;2.40;1.75;;;15.80;65.30;;;;;;5062766;28;20028;-76
2020/12/22 09:52:44;;;;;;;2.78;2.15;;;15.80;65.30;;;;;;5064120;28;20035;-75
2020/12/22 09:55:12;;;;;;;2.05;1.70;;;15.80;65.30;;;;;;5061315;28;20039;-76
2020/12/22 09:57:43;;;;;;;2.22;1.90;;;15.80;65.30;;;;;;5059412;28;20021;-76
2020/12/22 10:00:23;;;;;;;2.13;1.70;;;15.70;65.30;;;;;;5062044;28;20462;-76
2020/12/22 10:02:57;;;;;;;1.95;1.50;;;15.80;65.30;;;;;;5067221;28;20032;-76
2020/12/22 10:05:27;;;;;;;2.75;2.13;;;15.80;65.20;;;;;;5048211;28;20033;-77
2020/12/22 10:07:56;;;;;;;1.70;1.58;;;15.80;65.20;;;;;;5062815;28;20032;-76
2020/12/22 10:10:27;;;;;;;;;;;15.80;65.20;;;;;;5063574;28;22104;-76
2020/12/22 10:12:56;;;;;;;1.85;1.48;;;15.80;65.20;;;;;;5046541;28;19958;-76
2020/12/22 10:15:24;;;;;;;2.15;1.67;;;15.80;65.10;;;;;;5046750;28;21619;-76
2020/12/22 10:17:55;;;;;;;2.88;2.25;;;15.80;65.10;;;;;;5051588;28;20032;-76
2020/12/22 10:20:28;;;;;;;2.03;1.70;;;15.80;65.10;;;;;;5020128;28;20039;-75
2020/12/22 10:23:08;;;;;;;2.72;1.70;;;15.80;65.00;;;;;;5050410;28;20037;-76
2020/12/22 10:25:38;;;;;;;2.78;2.22;;;15.80;65.00;;;;;;5030480;28;20025;-76
2020/12/22 10:28:04;;;;;;;2.35;1.77;;;15.80;65.00;;;;;;5043087;28;20021;-76
2020/12/22 10:30:35;;;;;;;3.20;1.98;;;15.80;65.00;;;;;;5051273;28;20033;-78
2020/12/22 10:33:05;;;;;;;1.80;1.67;;;15.80;65.00;;;;;;5055532;28;20025;-76
2020/12/22 10:35:31;;;;;;;2.90;2.13;;;15.80;64.90;;;;;;5036870;28;20029;-75
2020/12/22 10:38:11;;;;;;;2.03;1.80;;;15.80;64.90;;;;;;5045230;28;20091;-76
2020/12/22 10:40:48;;;;;;;2.75;1.73;;;15.90;64.90;;;;;;5024516;28;20029;-77
2020/12/22 10:43:19;;;;;;;2.47;1.67;;;15.80;65.00;;;;;;5045864;28;20044;-77
2020/12/22 10:45:47;;;;;;;2.90;2.00;;;15.80;65.10;;;;;;5046252;28;20280;-77
2020/12/22 10:48:18;;;;;;;2.63;2.05;;;15.80;65.10;;;;;;5046877;28;20421;-75
2020/12/22 10:50:44;;;;;;;2.45;1.70;;;15.80;65.10;;;;;;5043943;28;20036;-75
2020/12/22 10:53:14;;;;;;;2.13;1.60;;;15.80;65.10;;;;;;5033158;28;20401;-76
2020/12/22 10:55:45;;;;;;;2.80;2.10;;;15.80;65.10;;;;;;5020388;28;20116;-76
2020/12/22 10:58:15;;;;;;;2.33;1.70;;;15.80;65.10;;;;;;5025602;28;20121;-76
2020/12/22 11:00:41;;;;;;;2.88;2.20;;;15.80;65.10;;;;;;5042535;28;20020;-76
2020/12/22 11:03:14;;;;;;;2.70;1.90;;;15.80;65.10;;;;;;5046483;28;20033;-74
2020/12/22 11:08:43;;;;;;;2.78;2.25;;;15.80;65.00;;;;;;5044186;28;20437;-78
2020/12/22 11:11:09;;;;;;;2.42;1.90;;;15.80;65.00;;;;;;5027449;28;20029;-77
2020/12/22 11:13:43;;;;;;;1.95;1.70;;;15.80;65.00;;;;;;5043623;28;20116;-78
2020/12/22 11:16:14;;;;;;;1.73;1.42;;;15.80;65.00;;;;;;5065213;28;20048;-78
2020/12/22 11:18:40;;;;;;;1.70;1.60;;;15.90;65.00;;;;;;5063005;28;20086;-75
2020/12/22 11:21:12;;;;;;;1.80;1.50;;;15.80;65.00;;;;;;5062643;28;21700;-77
2020/12/22 11:23:49;;;;;;;2.35;2.00;;;15.80;65.00;;;;;;5061210;28;20036;-76
2020/12/22 11:26:21;;;;;;;2.08;1.80;;;15.80;65.10;;;;;;5066706;28;20028;-76
2020/12/22 11:28:53;;;;;;;2.35;1.77;;;15.80;65.10;;;;;;5065895;28;20025;-76
2020/12/22 11:31:32;;;;;;;1.67;1.48;;;15.80;65.10;;;;;;5044275;28;20108;-76
2020/12/22 11:34:02;;;;;;;2.28;1.70;;;15.80;65.10;;;;;;5049433;28;20083;-76
2020/12/22 11:36:31;;;;;;;2.35;1.90;;;15.80;65.10;;;;;;5057096;28;20043;-76
2020/12/22 11:39:03;;;;;;;1.60;1.48;;;15.80;65.00;;;;;;5056671;28;20090;-76
2020/12/22 11:41:29;;;;;;;1.25;1.15;;;15.80;65.00;;;;;;5050297;28;20031;-75
2020/12/22 11:44:02;;;;;;;2.20;1.70;;;15.90;64.90;;;;;;5050112;28;20041;-76
2020/12/22 11:46:27;;;;;;;2.00;1.65;;;15.90;64.90;;;;;;5060949;28;20466;-76
2020/12/22 11:48:57;;;;;;;2.10;1.80;;;15.90;64.80;;;;;;5062136;28;20066;-76
2020/12/22 11:51:28;;;;;;;1.98;1.60;;;15.90;64.80;;;;;;5050896;28;20050;-76
2020/12/22 11:53:58;;;;;;;2.42;1.92;;;15.90;64.80;;;;;;5073364;28;20039;-76
2020/12/22 11:56:28;;;;;;;2.65;2.05;;;15.90;64.80;;;;;;5070577;28;20111;-75
2020/12/22 11:58:59;;;;;;;1.90;1.70;;;15.90;64.90;;;;;;5071712;28;20028;-76
2020/12/22 12:01:30;;;;;;;2.75;1.50;;;15.90;64.90;;;;;;5070981;28;20036;-75
2020/12/22 12:04:02;;;;;;;2.17;1.65;;;15.90;64.90;;;;;;5056864;28;20066;-76
2020/12/22 12:06:33;;;;;;;2.35;1.88;;;15.90;64.90;;;;;;5055059;28;20029;-77
2020/12/22 12:09:02;;;;;;;1.70;1.50;;;15.90;64.90;;;;;;5066088;28;20041;-76
2020/12/22 12:11:36;;;;;;;1.88;1.50;;;15.90;64.90;;;;;;5047495;28;20102;-76
2020/12/22 12:14:07;;;;;;;1.98;1.60;;;15.90;64.80;;;;;;5071446;28;20411;-76
2020/12/22 12:16:39;;;;;;;2.55;2.15;;;15.90;64.80;;;;;;5049727;28;20208;-76
2020/12/22 12:19:19;;;;;;;3.83;1.80;;;15.90;64.80;;;;;;5054328;28;20032;-75
2020/12/22 12:21:59;;;;;;;1.98;1.73;;;15.90;64.80;;;;;;5049435;28;20025;-75
2020/12/22 12:24:30;;;;;;;2.03;1.63;;;15.90;64.80;;;;;;5071614;28;20036;-77
2020/12/22 12:26:56;;;;;;;2.50;1.73;;;15.90;64.90;;;;;;5064039;28;20032;-76
2020/12/22 12:29:33;;;;;;;1.92;1.60;;;15.90;64.90;;;;;;5068956;28;20401;-76
2020/12/22 12:32:04;;;;;;;1.70;1.55;;;15.90;64.90;;;;;;5060505;28;20031;-76
2020/12/22 12:34:36;;;;;;;2.35;1.80;;;15.90;64.80;;;;;;5063452;28;20037;-76
2020/12/22 12:37:20;;;;;;;1.92;1.58;;;15.90;64.80;;;;;;5049475;28;20029;-76
2020/12/22 12:39:51;;;;;;;1.75;1.40;;;15.90;64.80;;;;;;5067059;28;20458;-77
2020/12/22 12:42:24;;;;;;;1.58;1.40;;;15.90;64.80;;;;;;5064865;28;20533;-77
2020/12/22 12:44:54;;;;;;;2.47;1.75;;;15.90;64.70;;;;;;5069934;28;20099;-77
2020/12/22 12:47:20;;;;;;;2.03;1.50;;;16.00;64.70;;;;;;5068973;28;20025;-76
2020/12/22 12:49:51;;;;;;;1.67;1.40;;;16.00;64.70;;;;;;5064880;28;20519;-77
2020/12/22 12:52:17;;;;;;;2.25;1.80;;;16.00;64.70;;;;;;5067909;28;20407;-76
2020/12/22 12:54:48;;;;;;;2.33;1.75;;;16.00;64.70;;;;;;5051816;28;20032;-76
2020/12/22 12:57:28;;;;;;;2.03;1.83;;;16.00;64.70;;;;;;5070936;28;20067;-76
2020/12/22 13:00:00;;;;;;;2.10;1.67;;;16.00;64.60;;;;;;5048061;28;20510;-76
2020/12/22 13:02:31;;;;;;;2.15;1.70;;;16.00;64.70;;;;;;5067701;28;20492;-76
2020/12/22 13:05:04;;;;;;;2.17;1.75;;;16.00;64.70;;;;;;5060998;28;20087;-76
2020/12/22 13:07:45;;;;;;;2.60;1.70;;;16.00;64.80;;;;;;5049420;28;20552;-77
2020/12/22 13:10:13;;;;;;;1.60;1.40;;;16.00;64.80;;;;;;5061090;28;20410;-76
2020/12/22 13:12:44;;;;;;;2.47;1.98;;;16.00;64.90;;;;;;5045177;28;20433;-76
2020/12/22 13:15:09;;;;;;;2.33;1.80;;;15.90;64.90;;;;;;5067116;28;20090;-77
2020/12/22 13:17:40;;;;;;;2.33;1.70;;;15.90;64.90;;;;;;5051504;28;20032;-77
2020/12/22 13:20:06;;;;;;;2.30;1.80;;;15.90;64.90;;;;;;5069806;28;20025;-78